Time;durP1;ratioP1;P1;durP2;ratioP2;P2;SDS_P1;SDS_P2;PMS_P1;PMS_P2;Temp;Humidity;BMP_temperature;BMP_pressure;BME280_temperature;BME280_humidity;BME280_pressure;Samples;Min_cycle;Max_cycle;Signal;HPM_P1;HPM_P2
2022/05/11 00:00:59;;;;;;;7.38;2.63;;;18.50;99.90;;;;;;5066456;28;20458;-70
2022/05/11 00:03:26;;;;;;;3.42;2.03;;;18.50;99.90;;;;;;5039718;28;20086;-63
2022/05/11 00:05:54;;;;;;;5.55;2.33;;;18.40;99.90;;;;;;5055180;28;20040;-62
2022/05/11 00:08:21;;;;;;;4.38;2.08;;;18.40;99.90;;;;;;5069455;28;20128;-67
2022/05/11 00:10:48;;;;;;;6.75;3.13;;;18.40;99.90;;;;;;5070668;28;20025;-68
2022/05/11 00:13:15;;;;;;;6.78;5.00;;;18.30;99.90;;;;;;5060264;28;20117;-63
2022/05/11 00:15:42;;;;;;;7.95;5.55;;;18.20;99.90;;;;;;5063228;28;20017;-63
2022/05/11 00:18:10;;;;;;;10.55;8.63;;;18.20;99.90;;;;;;5069234;28;20030;-63
2022/05/11 00:20:37;;;;;;;5.85;3.95;;;18.20;99.90;;;;;;5066999;28;20568;-68
2022/05/11 00:23:05;;;;;;;5.03;3.00;;;18.10;99.90;;;;;;5067022;28;20028;-69
2022/05/11 00:25:32;;;;;;;5.57;3.17;;;18.00;99.90;;;;;;5066487;28;20017;-69
2022/05/11 00:27:59;;;;;;;5.25;3.28;;;18.10;99.90;;;;;;5067585;28;20099;-69
2022/05/11 00:30:28;;;;;;;8.00;4.15;;;18.20;99.90;;;;;;5071927;28;20459;-65
2022/05/11 00:32:57;;;;;;;8.00;3.10;;;18.20;99.90;;;;;;5061555;28;20043;-63
2022/05/11 00:35:25;;;;;;;6.13;2.28;;;18.20;99.90;;;;;;5072547;28;20027;-64
2022/05/11 00:37:52;;;;;;;6.38;2.15;;;18.30;99.90;;;;;;5067104;28;20044;-64
2022/05/11 00:40:22;;;;;;;6.63;2.40;;;18.30;99.90;;;;;;5069792;28;20017;-64
2022/05/11 00:42:49;;;;;;;6.38;2.80;;;18.30;99.90;;;;;;5053463;28;20758;-70
2022/05/11 00:45:16;;;;;;;7.03;2.75;;;18.20;99.90;;;;;;5054121;28;20032;-63
2022/05/11 00:48:00;;;;;;;4.25;2.60;;;18.20;99.90;;;;;;5068890;28;20467;-63
2022/05/11 00:50:32;;;;;;;4.82;2.05;;;18.20;99.90;;;;;;5061923;28;20029;-62
2022/05/11 00:53:09;;;;;;;5.85;3.38;;;18.10;99.90;;;;;;5061082;28;20025;-62
2022/05/11 00:55:41;;;;;;;5.53;3.88;;;18.30;99.90;;;;;;5057667;28;20017;-70
2022/05/11 00:58:12;;;;;;;5.50;3.13;;;18.30;99.90;;;;;;5057787;28;20016;-62
2022/05/11 01:00:39;;;;;;;9.15;3.42;;;18.40;99.90;;;;;;5053761;28;20028;-70
2022/05/11 01:03:15;;;;;;;7.72;3.25;;;18.50;99.90;;;;;;5069831;28;20055;-70
2022/05/11 01:05:44;;;;;;;8.25;3.03;;;18.70;99.90;;;;;;5067918;28;20021;-70
2022/05/11 01:08:13;;;;;;;7.75;4.63;;;18.80;99.90;;;;;;5062847;28;20036;-64
2022/05/11 01:10:41;;;;;;;6.97;4.40;;;18.80;99.90;;;;;;5069943;28;20020;-66
2022/05/11 01:13:12;;;;;;;6.97;3.40;;;18.80;99.90;;;;;;5063471;28;20025;-69
2022/05/11 01:15:40;;;;;;;7.65;3.20;;;18.80;99.90;;;;;;5055406;28;20027;-66
2022/05/11 01:18:09;;;;;;;6.00;2.65;;;18.70;99.90;;;;;;5072742;28;20147;-63
2022/05/11 01:20:37;;;;;;;8.45;3.05;;;18.60;99.90;;;;;;5065666;28;20017;-64
2022/05/11 01:23:27;;;;;;;5.45;2.78;;;18.60;99.90;;;;;;5053063;28;20495;-63
2022/05/11 01:25:54;;;;;;;6.38;3.30;;;18.40;99.90;;;;;;5017472;28;20040;-64
2022/05/11 01:28:21;;;;;;;8.40;3.78;;;18.30;99.90;;;;;;5024499;28;20034;-70
2022/05/11 01:30:51;;;;;;;7.88;4.43;;;18.40;99.90;;;;;;5028255;28;20064;-70
2022/05/11 01:33:23;;;;;;;7.03;3.95;;;18.30;99.90;;;;;;5024942;28;20029;-63
2022/05/11 01:36:25;;;;;;;6.43;3.57;;;18.20;99.90;;;;;;5024512;28;20017;-64
2022/05/11 01:39:05;;;;;;;6.60;3.17;;;18.10;99.90;;;;;;5020810;28;20131;-63
2022/05/11 01:41:38;;;;;;;5.00;2.63;;;18.10;99.90;;;;;;5022560;28;20459;-68
2022/05/11 01:44:09;;;;;;;6.97;2.75;;;18.10;99.90;;;;;;5022662;28;20037;-67
2022/05/11 01:46:37;;;;;;;6.53;2.63;;;18.10;99.90;;;;;;5025137;28;20136;-67
2022/05/11 01:49:05;;;;;;;7.63;2.30;;;18.20;99.90;;;;;;5024771;28;20033;-65
2022/05/11 01:51:32;;;;;;;6.97;2.90;;;18.30;99.90;;;;;;5030081;28;20037;-65
2022/05/11 01:53:59;;;;;;;9.38;3.75;;;18.30;99.90;;;;;;5022383;28;20134;-66
2022/05/11 01:56:27;;;;;;;6.65;3.30;;;18.30;99.90;;;;;;5011039;28;20045;-69
2022/05/11 01:58:54;;;;;;;7.90;3.70;;;18.50;99.90;;;;;;5023208;28;20145;-63
2022/05/11 02:01:24;;;;;;;7.60;3.22;;;18.40;99.90;;;;;;5032698;28;20053;-68
2022/05/11 02:03:52;;;;;;;6.78;3.03;;;18.30;99.90;;;;;;5062446;28;20051;-70
2022/05/11 02:09:06;;;;;;;7.28;3.33;;;18.20;99.90;;;;;;5067862;28;20051;-67
2022/05/11 02:11:33;;;;;;;7.38;3.30;;;18.20;99.90;;;;;;5062128;28;20027;-70
2022/05/11 02:14:00;;;;;;;5.90;3.45;;;18.10;99.90;;;;;;5063470;28;20028;-63
2022/05/11 02:16:27;;;;;;;5.47;3.30;;;18.10;99.90;;;;;;5060216;28;20027;-67
2022/05/11 02:18:55;;;;;;;7.93;3.50;;;18.00;99.90;;;;;;5061231;28;20017;-70
2022/05/11 02:21:23;;;;;;;7.10;4.30;;;17.90;99.90;;;;;;5062802;28;20016;-63
2022/05/11 02:23:51;;;;;;;7.40;3.90;;;17.90;99.90;;;;;;5060315;28;20021;-63
2022/05/11 02:26:20;;;;;;;8.35;3.90;;;17.90;99.90;;;;;;5063560;28;20503;-65
2022/05/11 02:28:50;;;;;;;8.90;4.68;;;17.90;99.90;;;;;;5060705;28;20021;-66
2022/05/11 02:31:18;;;;;;;9.02;3.97;;;17.90;99.90;;;;;;5062436;28;20028;-65
2022/05/11 02:33:45;;;;;;;11.38;5.32;;;17.80;99.90;;;;;;5057666;28;20021;-70
2022/05/11 02:36:12;;;;;;;9.77;4.00;;;17.70;99.90;;;;;;5061332;28;20113;-67
2022/05/11 02:38:42;;;;;;;6.20;4.15;;;17.70;99.90;;;;;;5060219;28;20072;-64
2022/05/11 02:41:09;;;;;;;8.30;4.30;;;17.60;99.90;;;;;;5061960;28;20013;-69
2022/05/11 02:43:36;;;;;;;8.25;5.55;;;17.60;99.90;;;;;;4709714;28;10000610;-63
2022/05/11 02:46:03;;;;;;;10.85;4.93;;;17.70;99.90;;;;;;5052867;28;20020;-67
2022/05/11 02:48:33;;;;;;;8.77;4.07;;;17.60;99.90;;;;;;5058741;28;20020;-63
2022/05/11 02:51:00;;;;;;;7.00;3.65;;;17.70;99.90;;;;;;5058996;28;20028;-64
2022/05/11 02:53:29;;;;;;;9.88;4.00;;;17.80;99.90;;;;;;5066861;28;20083;-65
2022/05/11 02:55:57;;;;;;;7.93;3.97;;;17.80;99.90;;;;;;5059716;28;20016;-70
2022/05/11 02:58:27;;;;;;;7.63;4.13;;;17.90;99.90;;;;;;5060160;28;20051;-64
2022/05/11 03:00:56;;;;;;;10.00;5.10;;;17.80;99.90;;;;;;5059832;28;20081;-70
2022/05/11 03:03:23;;;;;;;8.52;5.35;;;17.90;99.90;;;;;;5067156;28;20032;-70
2022/05/11 03:05:53;;;;;;;9.02;5.97;;;18.00;99.90;;;;;;5055696;28;20099;-70
2022/05/11 03:08:21;;;;;;;11.63;5.40;;;18.10;99.90;;;;;;5060249;28;20017;-65
2022/05/11 03:10:48;;;;;;;8.43;5.28;;;18.20;99.90;;;;;;5068208;28;20028;-67
2022/05/11 03:13:16;;;;;;;8.38;4.25;;;18.20;99.90;;;;;;5054109;28;20071;-63
2022/05/11 03:15:43;;;;;;;7.00;3.22;;;18.30;99.90;;;;;;5064596;28;20024;-67
2022/05/11 03:18:10;;;;;;;10.13;4.13;;;18.30;99.90;;;;;;5061023;28;20046;-70
2022/05/11 03:20:37;;;;;;;5.50;3.20;;;18.30;99.90;;;;;;5062677;28;20490;-65
2022/05/11 03:23:04;;;;;;;6.28;3.00;;;18.30;99.90;;;;;;5059376;28;20097;-71
2022/05/11 03:25:31;;;;;;;5.75;3.22;;;18.30;99.90;;;;;;5063673;28;20032;-65
2022/05/11 03:27:59;;;;;;;4.40;2.83;;;18.40;99.90;;;;;;5051228;28;20087;-70
2022/05/11 03:30:26;;;;;;;6.53;3.28;;;18.40;99.90;;;;;;5059433;28;20017;-65
2022/05/11 03:35:38;;;;;;;5.03;3.22;;;18.60;99.90;;;;;;5063495;28;20074;-68
2022/05/11 03:38:05;;;;;;;7.50;3.38;;;18.60;99.90;;;;;;5034060;28;20097;-64
2022/05/11 03:40:34;;;;;;;5.40;4.03;;;18.50;99.90;;;;;;5058425;28;20021;-65
2022/05/11 03:43:04;;;;;;;6.13;4.30;;;18.50;99.90;;;;;;5056967;28;20090;-65
2022/05/11 03:45:32;;;;;;;7.20;4.80;;;18.50;99.90;;;;;;5068445;28;20079;-64
2022/05/11 03:47:59;;;;;;;7.57;4.00;;;18.60;99.90;;;;;;5062786;28;20395;-66
2022/05/11 03:50:26;;;;;;;7.18;3.80;;;18.60;99.90;;;;;;5063712;28;20086;-64
2022/05/11 03:52:55;;;;;;;4.45;2.70;;;18.60;99.90;;;;;;5054840;28;20052;-63
2022/05/11 03:55:23;;;;;;;4.57;2.25;;;18.50;99.90;;;;;;5065765;28;20100;-70
2022/05/11 03:57:50;;;;;;;5.03;2.08;;;18.40;99.90;;;;;;5050624;28;20046;-67
2022/05/11 04:00:26;;;;;;;5.97;2.72;;;18.40;99.90;;;;;;5067735;28;20029;-67
2022/05/11 04:02:56;;;;;;;5.65;2.38;;;18.40;99.90;;;;;;5059684;28;20027;-69
2022/05/11 04:05:23;;;;;;;4.45;1.90;;;18.30;99.90;;;;;;5051732;28;20028;-64
2022/05/11 04:07:50;;;;;;;5.03;2.47;;;18.30;99.90;;;;;;5058162;28;20021;-67
2022/05/11 04:10:19;;;;;;;4.10;1.92;;;18.30;99.90;;;;;;5072803;28;20115;-67
2022/05/11 04:12:46;;;;;;;4.15;2.38;;;18.20;99.90;;;;;;5059095;28;20029;-69
2022/05/11 04:15:14;;;;;;;5.32;2.10;;;18.30;99.90;;;;;;5053972;28;20498;-65
2022/05/11 04:17:42;;;;;;;4.55;2.10;;;18.30;99.90;;;;;;5055341;28;20047;-65
2022/05/11 04:20:11;;;;;;;5.43;2.70;;;18.30;99.90;;;;;;5062747;28;20516;-63
2022/05/11 04:22:39;;;;;;;5.97;4.10;;;18.30;99.90;;;;;;5060838;28;20017;-70
2022/05/11 04:25:07;;;;;;;4.82;3.75;;;18.30;99.90;;;;;;5054411;28;20037;-64
2022/05/11 04:27:34;;;;;;;5.35;3.25;;;18.20;99.90;;;;;;5051392;28;20368;-63
2022/05/11 04:30:02;;;;;;;8.43;3.20;;;18.20;99.90;;;;;;5061231;28;20036;-67
2022/05/11 04:32:29;;;;;;;3.92;2.10;;;18.10;99.90;;;;;;5058105;28;20017;-70
2022/05/11 04:34:56;;;;;;;6.57;2.03;;;18.10;99.90;;;;;;5054781;28;20029;-64
2022/05/11 04:37:23;;;;;;;5.20;2.13;;;18.00;99.90;;;;;;5051957;28;20052;-63
2022/05/11 04:39:50;;;;;;;4.90;2.67;;;18.00;99.90;;;;;;5048841;28;20025;-63
2022/05/11 04:42:17;;;;;;;6.47;2.88;;;18.00;99.90;;;;;;5051962;28;20025;-67
2022/05/11 04:44:44;;;;;;;4.47;3.05;;;18.00;99.90;;;;;;5057596;28;20287;-65
2022/05/11 04:47:14;;;;;;;10.15;3.47;;;18.00;99.90;;;;;;5059446;28;20103;-63
2022/05/11 04:49:42;;;;;;;5.43;2.15;;;18.00;99.90;;;;;;5062784;28;20024;-67
2022/05/11 04:52:18;;;;;;;6.00;2.60;;;18.10;99.90;;;;;;5059503;28;20029;-68
2022/05/11 04:54:51;;;;;;;5.53;2.55;;;18.00;99.90;;;;;;5060552;28;20485;-63
2022/05/11 04:57:18;;;;;;;;;;;18.00;99.90;;;;;;5066817;28;20017;-69
2022/05/11 04:59:45;;;;;;;5.82;2.58;;;17.90;99.90;;;;;;5068930;28;19909;-64
2022/05/11 05:02:21;;;;;;;6.18;3.15;;;17.90;99.90;;;;;;5063201;28;20475;-64
2022/05/11 05:04:49;;;;;;;6.30;2.53;;;17.80;99.90;;;;;;5066086;28;20031;-66
2022/05/11 05:07:17;;;;;;;8.70;2.83;;;17.90;99.90;;;;;;5063897;28;20016;-63
2022/05/11 05:09:43;;;;;;;7.85;3.15;;;17.80;99.90;;;;;;5061547;28;20074;-67
2022/05/11 05:12:13;;;;;;;7.63;3.33;;;17.80;99.90;;;;;;5067918;28;20538;-63
2022/05/11 05:14:42;;;;;;;4.75;2.55;;;17.80;99.90;;;;;;5062330;28;20119;-64
2022/05/11 05:17:11;;;;;;;5.53;2.58;;;17.70;99.90;;;;;;5061928;28;20211;-69
2022/05/11 05:19:40;;;;;;;4.90;2.22;;;17.70;99.90;;;;;;5056906;28;20036;-63
2022/05/11 05:22:07;;;;;;;6.00;2.70;;;17.60;99.90;;;;;;5040058;28;20490;-68
2022/05/11 05:24:34;;;;;;;4.32;2.58;;;17.60;99.90;;;;;;5064277;28;20114;-68
2022/05/11 05:27:02;;;;;;;7.95;2.92;;;17.60;99.90;;;;;;5060158;28;20029;-62
2022/05/11 05:32:15;;;;;;;5.35;3.53;;;17.50;99.90;;;;;;5057329;28;20447;-67
2022/05/11 05:34:45;;;;;;;6.60;3.30;;;17.50;99.90;;;;;;5062313;28;20021;-64
2022/05/11 05:37:14;;;;;;;6.88;3.50;;;17.60;99.90;;;;;;5059216;28;20032;-61
2022/05/11 05:39:41;;;;;;;5.75;2.92;;;17.50;99.90;;;;;;5066203;28;20050;-61
2022/05/11 05:42:09;;;;;;;9.77;3.25;;;17.50;99.90;;;;;;5054278;28;20149;-61
2022/05/11 05:44:38;;;;;;;8.73;3.28;;;17.50;99.90;;;;;;5058207;28;20054;-64
2022/05/11 05:47:07;;;;;;;7.40;3.25;;;17.40;99.90;;;;;;5056184;28;20017;-63
2022/05/11 05:49:35;;;;;;;8.52;3.70;;;17.40;99.90;;;;;;5053977;28;20028;-64
2022/05/11 05:52:03;;;;;;;6.47;3.88;;;17.40;99.90;;;;;;5057112;28;20052;-61
2022/05/11 05:54:35;;;;;;;7.53;3.53;;;17.40;99.90;;;;;;5063476;28;20108;-64
2022/05/11 05:57:02;;;;;;;8.80;3.38;;;17.50;99.90;;;;;;5053523;28;20028;-64
2022/05/11 05:59:29;;;;;;;6.43;4.40;;;17.40;99.90;;;;;;5042277;28;20123;-64
2022/05/11 06:01:56;;;;;;;7.80;5.18;;;17.40;99.90;;;;;;5046291;28;20537;-64
2022/05/11 06:04:24;;;;;;;7.05;4.70;;;17.40;99.90;;;;;;5052355;28;20021;-65
2022/05/11 06:06:51;;;;;;;10.55;5.75;;;17.30;99.90;;;;;;5058659;28;20032;-65
2022/05/11 06:09:18;;;;;;;6.97;4.47;;;17.30;99.90;;;;;;5058599;28;20123;-62
2022/05/11 06:11:45;;;;;;;8.48;4.18;;;17.30;99.90;;;;;;5056743;28;20029;-62
2022/05/11 06:14:12;;;;;;;8.27;4.60;;;17.30;99.90;;;;;;5055109;28;20489;-66
2022/05/11 06:16:39;;;;;;;7.95;4.32;;;17.20;99.90;;;;;;5060278;28;20028;-67
2022/05/11 06:19:06;;;;;;;7.30;3.70;;;17.20;99.90;;;;;;5066479;28;20063;-63
2022/05/11 06:21:36;;;;;;;6.30;3.80;;;17.10;99.90;;;;;;5069395;28;20027;-66
2022/05/11 06:24:03;;;;;;;9.07;4.40;;;17.10;99.90;;;;;;5064229;28;20099;-64
2022/05/11 06:26:33;;;;;;;7.60;4.90;;;17.10;99.90;;;;;;5067633;28;20016;-66
2022/05/11 06:29:00;;;;;;;10.40;5.10;;;17.10;99.90;;;;;;5069346;28;20054;-64
2022/05/11 06:31:28;;;;;;;10.63;6.55;;;17.00;99.90;;;;;;5068001;28;20054;-62
2022/05/11 06:33:56;;;;;;;7.82;7.03;;;16.90;99.90;;;;;;5066707;28;20078;-67
2022/05/11 06:36:23;;;;;;;13.10;8.43;;;16.90;99.90;;;;;;5072607;28;20020;-62
2022/05/11 06:38:52;;;;;;;14.32;11.30;;;16.90;99.90;;;;;;5067571;28;20054;-64
2022/05/11 06:41:23;;;;;;;16.42;9.68;;;17.00;99.90;;;;;;5076629;28;20036;-67
2022/05/11 06:43:51;;;;;;;14.43;10.15;;;16.90;99.90;;;;;;5071746;28;20031;-66
2022/05/11 06:46:21;;;;;;;13.25;9.35;;;16.90;99.90;;;;;;5070875;28;20028;-64
2022/05/11 06:48:48;;;;;;;11.23;9.02;;;16.90;99.90;;;;;;5064187;28;20040;-61
2022/05/11 06:51:17;;;;;;;15.93;11.15;;;16.90;99.90;;;;;;5060658;28;20103;-64
2022/05/11 06:59:26;;;;;;;12.32;7.97;;;16.80;99.90;;;;;;5063670;28;20047;-62
2022/05/11 07:01:57;;;;;;;11.05;7.93;;;16.80;99.90;;;;;;5067230;28;20057;-62
2022/05/11 07:04:25;;;;;;;9.75;7.07;;;16.80;99.90;;;;;;5060614;28;20017;-65
2022/05/11 07:06:54;;;;;;;9.93;7.30;;;16.80;99.90;;;;;;5070163;28;20058;-64
2022/05/11 07:09:23;;;;;;;10.68;6.43;;;16.80;99.90;;;;;;5057267;28;20090;-62
2022/05/11 07:14:36;;;;;;;12.80;8.40;;;16.70;99.90;;;;;;5073429;28;20043;-62
2022/05/11 07:17:03;;;;;;;14.90;8.18;;;16.80;99.90;;;;;;5060839;28;20107;-64
2022/05/11 07:19:30;;;;;;;12.65;7.72;;;16.80;99.90;;;;;;5059294;28;20025;-65
2022/05/11 07:21:58;;;;;;;9.57;6.65;;;16.80;99.90;;;;;;5064643;28;20045;-61
2022/05/11 07:24:25;;;;;;;13.23;9.65;;;16.80;99.90;;;;;;5058326;28;20131;-64
2022/05/11 07:26:54;;;;;;;12.80;8.88;;;16.80;99.90;;;;;;5058432;28;20120;-63
2022/05/11 07:29:22;;;;;;;10.10;6.60;;;16.80;99.90;;;;;;5058712;28;20501;-63
2022/05/11 07:31:49;;;;;;;8.85;5.25;;;16.70;99.90;;;;;;5059860;28;20441;-66
2022/05/11 07:34:16;;;;;;;9.05;5.18;;;16.80;99.90;;;;;;5059708;28;20539;-64
2022/05/11 07:36:42;;;;;;;8.48;4.90;;;16.70;99.90;;;;;;5069183;28;20584;-65
2022/05/11 07:39:10;;;;;;;7.93;5.05;;;16.70;99.90;;;;;;5059988;28;20143;-66
2022/05/11 07:41:37;;;;;;;9.05;6.25;;;16.70;99.90;;;;;;5072252;28;20033;-62
2022/05/11 07:44:04;;;;;;;9.80;5.70;;;16.60;99.90;;;;;;5073272;28;20410;-68
2022/05/11 07:46:34;;;;;;;9.55;5.13;;;16.60;99.90;;;;;;5066303;28;20913;-67
2022/05/11 07:49:04;;;;;;;8.13;4.53;;;16.60;99.90;;;;;;5068430;28;20028;-66
2022/05/11 07:51:32;;;;;;;7.32;5.70;;;16.50;99.90;;;;;;5068788;28;20062;-68
2022/05/11 07:53:59;;;;;;;10.23;6.10;;;16.60;99.90;;;;;;5071126;28;20050;-62
2022/05/11 08:01:57;;;;;;;8.65;5.30;;;16.60;99.90;;;;;;5071724;28;20505;-62
2022/05/11 08:04:24;;;;;;;11.63;6.40;;;16.60;99.90;;;;;;5066296;28;20032;-62
2022/05/11 08:06:52;;;;;;;14.77;7.00;;;16.60;99.90;;;;;;5050739;28;20032;-65
2022/05/11 08:09:19;;;;;;;9.38;6.35;;;16.50;99.90;;;;;;5069416;28;20425;-62
2022/05/11 08:11:47;;;;;;;11.75;9.38;;;16.50;99.90;;;;;;5067491;28;20059;-64
2022/05/11 08:14:15;;;;;;;15.20;9.55;;;16.50;99.90;;;;;;5075422;28;20039;-64
2022/05/11 08:16:42;;;;;;;15.27;10.10;;;16.60;99.90;;;;;;5045579;28;20363;-65
2022/05/11 08:19:10;;;;;;;12.43;7.90;;;16.60;99.90;;;;;;5070935;28;20450;-61
2022/05/11 08:21:37;;;;;;;9.75;7.50;;;16.60;99.90;;;;;;5071742;28;20063;-66
2022/05/11 08:24:05;;;;;;;8.40;6.35;;;16.60;99.90;;;;;;5072321;28;20028;-66
2022/05/11 08:26:32;;;;;;;12.90;6.80;;;16.60;99.90;;;;;;5070473;28;20424;-67
2022/05/11 08:28:59;;;;;;;7.82;5.55;;;16.60;99.90;;;;;;5066062;28;20033;-62
2022/05/11 08:34:15;;;;;;;12.48;4.65;;;16.60;99.90;;;;;;5065766;28;20063;-61
2022/05/11 08:36:42;;;;;;;10.23;5.13;;;16.60;99.90;;;;;;5068710;28;20016;-68
2022/05/11 08:39:09;;;;;;;9.27;5.10;;;16.60;99.90;;;;;;5065227;28;20028;-62
2022/05/11 08:41:52;;;;;;;25.90;16.13;;;16.60;99.90;;;;;;5068153;28;20279;-61
2022/05/11 08:44:18;;;;;;;16.25;7.15;;;16.60;99.90;;;;;;5057638;28;20434;-65
2022/05/11 08:46:51;;;;;;;9.30;7.03;;;16.60;99.90;;;;;;5072001;28;20028;-62
2022/05/11 08:49:24;;;;;;;10.70;7.00;;;16.50;99.90;;;;;;5070626;28;20020;-62
2022/05/11 08:52:10;;;;;;;11.13;7.10;;;16.50;99.90;;;;;;5060557;28;20036;-65
2022/05/11 08:54:49;;;;;;;14.68;7.70;;;16.50;99.90;;;;;;5066157;28;20024;-67
2022/05/11 08:57:26;;;;;;;21.23;16.45;;;16.50;99.90;;;;;;5061325;28;20052;-67
2022/05/11 09:00:03;;;;;;;74.13;41.67;;;16.60;99.90;;;;;;5063755;28;20075;-71
2022/05/11 09:02:43;;;;;;;12.73;8.75;;;16.60;99.90;;;;;;5049652;28;20052;-69
2022/05/11 09:05:14;;;;;;;12.73;8.73;;;16.50;99.90;;;;;;5065401;28;20038;-69
2022/05/11 09:07:44;;;;;;;14.07;8.43;;;16.50;99.90;;;;;;5066844;28;20033;-68
2022/05/11 09:10:18;;;;;;;14.75;8.13;;;16.60;99.90;;;;;;5060108;28;20101;-65
2022/05/11 09:12:45;;;;;;;15.10;10.15;;;16.60;99.90;;;;;;5058188;28;20025;-66
2022/05/11 09:15:13;;;;;;;14.02;9.35;;;16.60;99.90;;;;;;5070235;28;20052;-63
2022/05/11 09:17:40;;;;;;;11.93;7.50;;;16.50;99.90;;;;;;5068225;28;20028;-67
2022/05/11 09:20:14;;;;;;;13.13;6.38;;;16.50;99.90;;;;;;5071212;28;20020;-65
2022/05/11 09:23:02;;;;;;;14.82;9.35;;;16.50;99.90;;;;;;5055137;28;20028;-67
2022/05/11 09:25:38;;;;;;;11.05;6.82;;;16.50;99.90;;;;;;5056996;28;20220;-67
2022/05/11 09:28:20;;;;;;;8.35;5.32;;;16.50;99.90;;;;;;5059880;28;20032;-67
2022/05/11 09:31:03;;;;;;;15.50;7.20;;;16.40;99.90;;;;;;5056332;28;20463;-65
2022/05/11 09:33:33;;;;;;;10.18;4.60;;;16.50;99.90;;;;;;5052039;28;20039;-64
2022/05/11 09:36:04;;;;;;;8.60;5.78;;;16.40;99.90;;;;;;5062438;28;20657;-64
2022/05/11 09:38:38;;;;;;;6.63;4.70;;;16.40;99.90;;;;;;5062442;28;20218;-64
2022/05/11 09:41:13;;;;;;;10.93;4.80;;;16.40;99.90;;;;;;5058508;28;20028;-66
2022/05/11 09:43:46;;;;;;;10.07;4.65;;;16.40;99.90;;;;;;5060422;28;20029;-65
2022/05/11 09:46:15;;;;;;;7.90;4.93;;;16.40;99.90;;;;;;5059769;28;20913;-65
2022/05/11 09:49:05;;;;;;;9.35;4.80;;;16.30;99.90;;;;;;5056014;28;20035;-66
2022/05/11 09:51:58;;;;;;;8.13;4.45;;;16.30;99.90;;;;;;5060852;28;20507;-64
2022/05/11 09:54:48;;;;;;;13.15;8.25;;;16.30;99.90;;;;;;5042808;28;20650;-65
2022/05/11 09:57:27;;;;;;;11.10;4.95;;;16.30;99.90;;;;;;5056211;28;20469;-68
2022/05/11 10:00:15;;;;;;;13.93;8.02;;;16.40;99.90;;;;;;5063298;28;20079;-66
2022/05/11 10:02:50;;;;;;;7.07;4.97;;;16.30;99.90;;;;;;5068834;28;20565;-64
2022/05/11 10:05:24;;;;;;;9.45;5.03;;;16.40;99.90;;;;;;5056635;28;20106;-67
2022/05/11 10:08:00;;;;;;;8.80;4.93;;;16.50;99.90;;;;;;5068616;28;20395;-64
2022/05/11 10:10:37;;;;;;;8.00;5.13;;;16.40;99.90;;;;;;5065247;28;20024;-64
2022/05/11 10:13:16;;;;;;;12.48;7.63;;;16.30;99.90;;;;;;5058655;28;20055;-66
2022/05/11 10:21:52;;;;;;;9.57;6.55;;;16.30;99.90;;;;;;5070006;28;20165;-66
2022/05/11 10:24:35;;;;;;;10.77;7.30;;;16.20;99.90;;;;;;5064645;28;20056;-68
2022/05/11 10:27:25;;;;;;;10.30;8.07;;;16.20;99.90;;;;;;5061053;28;20036;-69
2022/05/11 10:30:14;;;;;;;9.13;7.82;;;16.10;99.90;;;;;;5064250;28;20105;-68
2022/05/11 10:33:09;;;;;;;10.07;6.63;;;16.20;99.90;;;;;;5066512;28;20078;-65
2022/05/11 10:36:09;;;;;;;10.77;6.97;;;16.20;99.90;;;;;;5057775;28;20086;-66
2022/05/11 10:39:14;;;;;;;10.65;5.30;;;16.20;99.90;;;;;;5078464;22;20045;-67
2022/05/11 10:41:51;;;;;;;8.50;5.28;;;16.20;99.90;;;;;;5069165;28;20421;-65
2022/05/11 10:44:23;;;;;;;6.90;4.90;;;16.10;99.90;;;;;;5067414;28;20027;-66
2022/05/11 10:46:56;;;;;;;16.08;12.02;;;16.10;99.90;;;;;;5070840;28;20233;-66
2022/05/11 10:49:39;;;;;;;7.50;3.97;;;16.10;99.90;;;;;;5072794;28;20441;-68
2022/05/11 10:52:24;;;;;;;7.93;3.70;;;16.20;99.90;;;;;;5061409;28;20044;-67
2022/05/11 10:54:57;;;;;;;9.43;4.47;;;16.20;99.90;;;;;;5072709;28;20024;-67
2022/05/11 10:57:41;;;;;;;9.02;4.60;;;16.30;99.90;;;;;;5070626;28;20017;-66
2022/05/11 11:00:15;;;;;;;7.30;4.40;;;16.30;99.90;;;;;;5071149;28;20024;-68
2022/05/11 11:03:11;;;;;;;6.50;4.55;;;16.20;99.90;;;;;;5071668;28;20387;-64
2022/05/11 11:07:10;;;;;;;8.18;3.80;;;16.30;99.90;;;;;;5073262;28;20085;-67
2022/05/11 11:08:45;;;;;;;9.25;4.82;;;16.40;99.90;;;;;;5058224;28;20024;-68
2022/05/11 11:11:54;;;;;;;7.32;4.60;;;16.30;99.90;;;;;;5056381;28;20028;-65
2022/05/11 11:14:44;;;;;;;8.73;5.38;;;16.30;99.90;;;;;;5046984;28;20388;-67
2022/05/11 11:17:17;;;;;;;8.65;4.30;;;16.30;99.90;;;;;;5059604;28;20021;-67
2022/05/11 11:19:49;;;;;;;8.77;5.10;;;16.30;99.90;;;;;;5060083;28;20025;-64
2022/05/11 11:22:16;;;;;;;8.55;5.00;;;16.30;99.90;;;;;;5066638;28;20020;-66
2022/05/11 11:25:03;;;;;;;6.70;3.92;;;16.40;99.90;;;;;;5066634;28;20035;-66
2022/05/11 11:28:11;;;;;;;9.40;4.28;;;16.30;99.90;;;;;;5058455;28;20127;-66
2022/05/11 11:30:40;;;;;;;7.00;4.97;;;16.30;99.90;;;;;;4974145;28;20109;-66
2022/05/11 11:33:15;;;;;;;9.63;4.25;;;16.30;99.90;;;;;;4993817;28;20177;-63
2022/05/11 11:35:59;;;;;;;8.05;4.13;;;16.20;99.90;;;;;;4986639;28;20026;-63
2022/05/11 11:38:41;;;;;;;11.80;5.07;;;16.20;99.90;;;;;;4993550;28;20560;-63
2022/05/11 11:41:12;;;;;;;7.78;5.28;;;16.20;99.90;;;;;;4989296;28;20477;-67
2022/05/11 11:44:05;;;;;;;8.32;4.68;;;16.20;99.90;;;;;;4990659;28;20038;-68
2022/05/11 11:46:40;;;;;;;9.18;4.22;;;16.20;99.90;;;;;;4988320;28;20038;-64
2022/05/11 11:49:20;;;;;;;8.85;4.57;;;16.10;99.90;;;;;;4992105;28;20544;-64
2022/05/11 11:52:07;;;;;;;12.05;4.85;;;16.10;99.90;;;;;;4987113;28;20042;-67
2022/05/11 11:54:37;;;;;;;7.95;4.50;;;16.10;99.90;;;;;;4987501;28;20054;-68
2022/05/11 11:57:20;;;;;;;8.65;5.35;;;16.10;99.90;;;;;;4986200;28;20026;-64
2022/05/11 11:59:59;;;;;;;8.88;4.75;;;16.10;99.90;;;;;;4993451;28;20145;-68
2022/05/11 12:02:31;;;;;;;16.35;5.93;;;16.10;99.90;;;;;;4984148;28;20034;-68
2022/05/11 12:04:58;;;;;;;7.15;5.20;;;16.10;99.90;;;;;;5041481;28;20040;-63
2022/05/11 12:16:26;;;;;;;10.82;6.47;;;16.00;99.90;;;;;;5061695;28;20040;-62
2022/05/11 12:19:07;;;;;;;12.75;7.22;;;16.00;99.90;;;;;;5063307;28;20051;-66
2022/05/11 12:21:38;;;;;;;10.73;6.93;;;16.00;99.90;;;;;;5063800;28;20071;-65
2022/05/11 12:24:07;;;;;;;10.95;6.93;;;16.00;99.90;;;;;;5061594;28;20074;-65
2022/05/11 12:26:39;;;;;;;9.48;6.90;;;16.00;99.90;;;;;;5056903;28;20038;-68
2022/05/11 12:32:00;;;;;;;10.63;6.97;;;15.90;99.90;;;;;;5056587;28;20559;-69
2022/05/11 12:34:30;;;;;;;8.65;6.75;;;15.90;99.90;;;;;;5066469;28;20039;-68
2022/05/11 12:36:57;;;;;;;9.73;6.90;;;15.90;99.90;;;;;;5063099;28;20028;-64
2022/05/11 12:39:33;;;;;;;10.38;6.50;;;15.90;99.90;;;;;;5067547;28;20028;-64
2022/05/11 12:42:00;;;;;;;10.88;6.82;;;15.90;99.90;;;;;;5063065;28;20498;-67
2022/05/11 12:44:36;;;;;;;10.75;9.13;;;15.90;99.90;;;;;;5062345;28;20028;-68
2022/05/11 12:47:07;;;;;;;11.02;6.82;;;15.90;99.90;;;;;;5064196;28;20485;-68
2022/05/11 12:49:34;;;;;;;10.65;7.07;;;15.90;99.90;;;;;;5061934;28;20016;-68
2022/05/11 12:52:03;;;;;;;9.98;7.20;;;15.90;99.90;;;;;;5071798;28;20033;-67
2022/05/11 12:54:31;;;;;;;13.45;9.75;;;16.00;99.90;;;;;;5060145;28;20573;-64
2022/05/11 12:57:15;;;;;;;10.20;8.30;;;16.00;99.90;;;;;;5063483;28;20471;-68
2022/05/11 12:59:54;;;;;;;12.85;9.38;;;16.00;99.90;;;;;;5070117;28;20426;-68
2022/05/11 13:02:31;;;;;;;11.43;9.68;;;16.00;99.90;;;;;;5052603;28;20079;-67
2022/05/11 13:05:01;;;;;;;13.43;10.88;;;16.10;99.90;;;;;;5059903;28;20032;-65
2022/05/11 13:07:53;;;;;;;13.30;9.80;;;16.10;99.90;;;;;;5065653;28;20478;-75
2022/05/11 13:10:33;;;;;;;14.25;9.85;;;16.10;99.90;;;;;;5064166;28;20029;-67
2022/05/11 13:13:02;;;;;;;12.75;10.07;;;16.00;99.90;;;;;;5071713;28;20033;-64
2022/05/11 13:15:36;;;;;;;13.40;9.52;;;16.10;99.90;;;;;;5073644;28;20025;-64
2022/05/11 13:18:05;;;;;;;13.15;10.15;;;16.00;99.90;;;;;;5072981;28;20032;-67
2022/05/11 13:20:39;;;;;;;12.25;10.30;;;16.10;99.90;;;;;;5060255;28;20382;-64
2022/05/11 13:23:20;;;;;;;16.80;11.48;;;16.20;99.90;;;;;;5071980;28;20021;-65
2022/05/11 13:25:51;;;;;;;14.70;11.57;;;16.10;99.90;;;;;;5073062;28;20111;-67
2022/05/11 13:28:28;;;;;;;14.75;11.13;;;16.10;99.90;;;;;;5073794;28;20035;-65
2022/05/11 13:31:19;;;;;;;16.75;12.00;;;16.10;99.90;;;;;;5077420;28;20025;-68
2022/05/11 13:33:46;;;;;;;11.80;10.43;;;16.10;99.90;;;;;;5067445;28;20055;-67
2022/05/11 13:36:22;;;;;;;12.10;9.55;;;16.10;99.90;;;;;;5061283;28;20060;-64
2022/05/11 13:39:18;;;;;;;12.80;10.57;;;16.10;99.90;;;;;;5064937;28;20056;-67
2022/05/11 13:41:49;;;;;;;11.10;9.25;;;16.10;99.90;;;;;;5062736;28;20044;-67
2022/05/11 13:44:34;;;;;;;12.15;9.30;;;16.10;99.90;;;;;;5073998;28;20047;-68
2022/05/11 13:50:07;;;;;;;15.40;9.88;;;16.10;99.90;;;;;;5060548;28;20418;-67
2022/05/11 13:52:39;;;;;;;13.90;9.68;;;16.20;99.90;;;;;;5071355;28;20200;-63